CFL3 weather

Black Diamond (Oilfields General Hospital) Heliport
Black Diamond, Alberta, Canada

Public forecast

Using degrees Celsius for public forecast. Weather courtesy of forecast.io.

Closest aviation weather report (METAR) to Black Diamond (Oilfields General Hospital) Heliport

Closest report is Calgary / Springbank Airport, 26.0 nm (48.2 km) NNW. Retrieved 2019/12/07 11:00 UTC (11 minutes ago):

CYBW 071100Z AUTO 01005KT 250V020 9SM CLR M08/M09 A2955 RMK SLP073

Closest aviation forecast (TAF) to Black Diamond (Oilfields General Hospital) Heliport

Forecast is more than 6 hours old.

Closest forecast is Calgary / Springbank Airport, 26.0 nm (48.2 km) NNW. Retrieved 2019-12-07 00:00 UTC (11 hours ago):

TAF CYBW 062338Z 0700/0705 VRB03KT P6SM SCT090 SCT220 BECMG 0700/0702 28005KT RMK FCST BASED ON AUTO OBS NXT FCST WILL BE ISSUED AT 071245Z